sensor_id;sensor_type;location;lat;lon;timestamp;pressure;altitude;pressure_sealevel;temperature;humidity
54936;BME280;40838;50.676;7.838;2023-11-18T00:00:11;99102.75;;;10.51;93.32
54936;BME280;40838;50.676;7.838;2023-11-18T00:02:39;99093.97;;;9.61;98.49
54936;BME280;40838;50.676;7.838;2023-11-18T00:05:09;99105.31;;;8.46;100.00
54936;BME280;40838;50.676;7.838;2023-11-18T00:07:36;99105.03;;;10.12;94.13
54936;BME280;40838;50.676;7.838;2023-11-18T00:10:03;99105.78;;;8.80;99.37
54936;BME280;40838;50.676;7.838;2023-11-18T00:12:30;99104.72;;;9.78;97.19
54936;BME280;40838;50.676;7.838;2023-11-18T00:14:57;99104.69;;;8.69;99.60
54936;BME280;40838;50.676;7.838;2023-11-18T00:17:24;99106.94;;;9.21;97.14
54936;BME280;40838;50.676;7.838;2023-11-18T00:19:50;99116.50;;;8.16;100.00
54936;BME280;40838;50.676;7.838;2023-11-18T00:22:20;99120.91;;;8.22;100.00
54936;BME280;40838;50.676;7.838;2023-11-18T00:24:47;99119.34;;;7.58;100.00
54936;BME280;40838;50.676;7.838;2023-11-18T00:27:13;99114.03;;;8.21;100.00
54936;BME280;40838;50.676;7.838;2023-11-18T00:29:40;99122.81;;;8.15;100.00
54936;BME280;40838;50.676;7.838;2023-11-18T00:32:09;99115.88;;;9.20;97.90
54936;BME280;40838;50.676;7.838;2023-11-18T00:34:36;99111.59;;;8.88;98.15
54936;BME280;40838;50.676;7.838;2023-11-18T00:37:02;99115.28;;;8.19;100.00
54936;BME280;40838;50.676;7.838;2023-11-18T00:39:31;99104.56;;;8.14;100.00
54936;BME280;40838;50.676;7.838;2023-11-18T00:41:57;99114.22;;;8.88;98.60
54936;BME280;40838;50.676;7.838;2023-11-18T00:44:24;99112.00;;;8.49;100.00
54936;BME280;40838;50.676;7.838;2023-11-18T00:46:51;99107.53;;;8.24;100.00
54936;BME280;40838;50.676;7.838;2023-11-18T00:49:17;99117.78;;;7.82;100.00
54936;BME280;40838;50.676;7.838;2023-11-18T00:51:44;99117.06;;;8.50;99.96
54936;BME280;40838;50.676;7.838;2023-11-18T00:54:11;99104.50;;;8.46;99.54
54936;BME280;40838;50.676;7.838;2023-11-18T00:56:39;99107.34;;;8.44;99.23
54936;BME280;40838;50.676;7.838;2023-11-18T00:59:06;99108.31;;;8.50;98.28
54936;BME280;40838;50.676;7.838;2023-11-18T01:01:33;99109.44;;;8.60;95.55
54936;BME280;40838;50.676;7.838;2023-11-18T01:04:01;99097.31;;;8.09;99.46
54936;BME280;40838;50.676;7.838;2023-11-18T01:06:28;99098.56;;;9.05;95.63
54936;BME280;40838;50.676;7.838;2023-11-18T01:08:55;99104.28;;;6.89;100.00
54936;BME280;40838;50.676;7.838;2023-11-18T01:11:24;99091.91;;;8.48;97.86
54936;BME280;40838;50.676;7.838;2023-11-18T01:13:53;99090.69;;;8.87;96.28
54936;BME280;40838;50.676;7.838;2023-11-18T01:16:21;99097.97;;;7.41;100.00
54936;BME280;40838;50.676;7.838;2023-11-18T01:18:50;99099.44;;;7.69;100.00
54936;BME280;40838;50.676;7.838;2023-11-18T01:21:16;99094.63;;;8.16;97.66
54936;BME280;40838;50.676;7.838;2023-11-18T01:23:43;99098.97;;;8.29;97.58
54936;BME280;40838;50.676;7.838;2023-11-18T01:26:11;99101.53;;;7.15;100.00
54936;BME280;40838;50.676;7.838;2023-11-18T01:28:38;99092.50;;;6.98;100.00
54936;BME280;40838;50.676;7.838;2023-11-18T01:31:09;99086.94;;;7.58;100.00
54936;BME280;40838;50.676;7.838;2023-11-18T01:33:36;99088.72;;;6.74;100.00
54936;BME280;40838;50.676;7.838;2023-11-18T01:36:06;99082.94;;;6.25;100.00
54936;BME280;40838;50.676;7.838;2023-11-18T01:38:33;99081.75;;;6.14;100.00
54936;BME280;40838;50.676;7.838;2023-11-18T01:41:00;99083.78;;;6.19;100.00
54936;BME280;40838;50.676;7.838;2023-11-18T01:43:28;99093.66;;;6.44;100.00
54936;BME280;40838;50.676;7.838;2023-11-18T01:45:57;99091.00;;;6.57;100.00
54936;BME280;40838;50.676;7.838;2023-11-18T01:48:29;99088.38;;;6.30;100.00
54936;BME280;40838;50.676;7.838;2023-11-18T01:50:59;99082.50;;;7.83;100.00
54936;BME280;40838;50.676;7.838;2023-11-18T01:53:26;99102.88;;;7.69;97.68
54936;BME280;40838;50.676;7.838;2023-11-18T01:55:54;99111.13;;;8.05;95.89
54936;BME280;40838;50.676;7.838;2023-11-18T01:58:21;99108.75;;;7.65;95.25
54936;BME280;40838;50.676;7.838;2023-11-18T02:00:50;99112.06;;;9.16;90.80
54936;BME280;40838;50.676;7.838;2023-11-18T02:03:17;99117.47;;;10.11;84.83
54936;BME280;40838;50.676;7.838;2023-11-18T02:05:47;99124.38;;;10.47;83.06
54936;BME280;40838;50.676;7.838;2023-11-18T02:08:14;99125.66;;;8.14;90.79
54936;BME280;40838;50.676;7.838;2023-11-18T02:10:46;99126.94;;;8.36;94.22
54936;BME280;40838;50.676;7.838;2023-11-18T02:13:22;99129.66;;;8.48;88.64
54936;BME280;40838;50.676;7.838;2023-11-18T02:15:53;99120.81;;;8.61;91.43
54936;BME280;40838;50.676;7.838;2023-11-18T02:18:24;99116.03;;;8.01;93.40
54936;BME280;40838;50.676;7.838;2023-11-18T02:20:53;99122.16;;;7.25;98.19
54936;BME280;40838;50.676;7.838;2023-11-18T02:23:22;99121.81;;;7.85;95.74
54936;BME280;40838;50.676;7.838;2023-11-18T02:25:50;99135.88;;;7.40;97.60
54936;BME280;40838;50.676;7.838;2023-11-18T02:28:18;99124.28;;;7.48;98.16
54936;BME280;40838;50.676;7.838;2023-11-18T02:30:45;99112.16;;;8.29;94.06
54936;BME280;40838;50.676;7.838;2023-11-18T02:33:18;99117.06;;;8.50;94.14
54936;BME280;40838;50.676;7.838;2023-11-18T02:35:49;99112.06;;;7.60;98.49
54936;BME280;40838;50.676;7.838;2023-11-18T02:38:22;99114.81;;;8.04;95.17
54936;BME280;40838;50.676;7.838;2023-11-18T02:40:52;99103.53;;;7.90;97.42
54936;BME280;40838;50.676;7.838;2023-11-18T02:43:23;99102.75;;;8.39;94.85
54936;BME280;40838;50.676;7.838;2023-11-18T02:45:51;99104.94;;;8.42;93.79
54936;BME280;40838;50.676;7.838;2023-11-18T02:48:20;99093.91;;;8.02;95.44
54936;BME280;40838;50.676;7.838;2023-11-18T02:50:47;99088.91;;;8.19;95.71
54936;BME280;40838;50.676;7.838;2023-11-18T02:53:13;99098.84;;;8.17;96.42
54936;BME280;40838;50.676;7.838;2023-11-18T02:55:40;99081.88;;;9.42;89.43
54936;BME280;40838;50.676;7.838;2023-11-18T02:58:08;99089.63;;;7.76;95.80
54936;BME280;40838;50.676;7.838;2023-11-18T03:00:35;99080.34;;;8.49;94.24
54936;BME280;40838;50.676;7.838;2023-11-18T03:03:04;99082.34;;;8.28;95.70
54936;BME280;40838;50.676;7.838;2023-11-18T03:05:31;99092.38;;;7.63;99.59
54936;BME280;40838;50.676;7.838;2023-11-18T03:07:58;99089.25;;;9.93;89.30
54936;BME280;40838;50.676;7.838;2023-11-18T03:10:24;99089.94;;;8.98;92.54
54936;BME280;40838;50.676;7.838;2023-11-18T03:12:52;99103.06;;;7.99;98.95
54936;BME280;40838;50.676;7.838;2023-11-18T03:15:22;99085.13;;;9.55;93.53
54936;BME280;40838;50.676;7.838;2023-11-18T03:17:49;99079.34;;;9.17;94.53
54936;BME280;40838;50.676;7.838;2023-11-18T03:20:16;99086.06;;;8.82;97.50
54936;BME280;40838;50.676;7.838;2023-11-18T03:22:43;99081.28;;;8.73;98.16
54936;BME280;40838;50.676;7.838;2023-11-18T03:25:11;99081.72;;;9.06;97.38
54936;BME280;40838;50.676;7.838;2023-11-18T03:27:38;99089.47;;;8.46;99.36
54936;BME280;40838;50.676;7.838;2023-11-18T03:30:06;99084.22;;;8.46;100.00
54936;BME280;40838;50.676;7.838;2023-11-18T03:32:35;99082.28;;;8.35;100.00
54936;BME280;40838;50.676;7.838;2023-11-18T03:35:02;99074.63;;;8.70;100.00
54936;BME280;40838;50.676;7.838;2023-11-18T03:37:30;99070.66;;;10.12;93.40
54936;BME280;40838;50.676;7.838;2023-11-18T03:39:56;99067.47;;;9.38;94.52
54936;BME280;40838;50.676;7.838;2023-11-18T03:42:23;99057.66;;;10.10;91.84
54936;BME280;40838;50.676;7.838;2023-11-18T03:44:50;99060.63;;;8.70;98.65
54936;BME280;40838;50.676;7.838;2023-11-18T03:47:16;99045.28;;;9.27;96.98
54936;BME280;40838;50.676;7.838;2023-11-18T03:49:44;99052.38;;;8.41;100.00
54936;BME280;40838;50.676;7.838;2023-11-18T03:52:11;99046.81;;;9.46;95.74
54936;BME280;40838;50.676;7.838;2023-11-18T03:54:38;99050.06;;;8.51;100.00
54936;BME280;40838;50.676;7.838;2023-11-18T03:57:05;99046.78;;;9.04;97.86
54936;BME280;40838;50.676;7.838;2023-11-18T03:59:31;99044.44;;;9.56;96.43
54936;BME280;40838;50.676;7.838;2023-11-18T04:01:58;99044.91;;;9.53;94.24
54936;BME280;40838;50.676;7.838;2023-11-18T04:04:25;99050.16;;;10.31;91.18
54936;BME280;40838;50.676;7.838;2023-11-18T04:06:55;99048.31;;;10.08;90.73
54936;BME280;40838;50.676;7.838;2023-11-18T04:09:22;99060.78;;;9.65;91.87
54936;BME280;40838;50.676;7.838;2023-11-18T04:11:48;99060.22;;;10.81;88.32
54936;BME280;40838;50.676;7.838;2023-11-18T04:14:15;99066.81;;;10.55;87.21
54936;BME280;40838;50.676;7.838;2023-11-18T04:16:44;99056.13;;;11.59;81.44
54936;BME280;40838;50.676;7.838;2023-11-18T04:19:11;99076.03;;;10.76;85.05
54936;BME280;40838;50.676;7.838;2023-11-18T04:21:38;99072.09;;;10.66;87.44
54936;BME280;40838;50.676;7.838;2023-11-18T04:24:07;99070.94;;;10.74;87.93
54936;BME280;40838;50.676;7.838;2023-11-18T04:26:34;99078.84;;;10.98;87.80
54936;BME280;40838;50.676;7.838;2023-11-18T04:29:01;99081.91;;;10.42;88.29
54936;BME280;40838;50.676;7.838;2023-11-18T04:31:27;99086.06;;;10.38;88.08
54936;BME280;40838;50.676;7.838;2023-11-18T04:33:54;99084.53;;;9.53;93.99
54936;BME280;40838;50.676;7.838;2023-11-18T04:36:21;99092.19;;;8.39;98.29
54936;BME280;40838;50.676;7.838;2023-11-18T04:38:48;99084.13;;;9.26;97.45
54936;BME280;40838;50.676;7.838;2023-11-18T04:41:16;99079.72;;;9.02;98.82
54936;BME280;40838;50.676;7.838;2023-11-18T04:43:43;99077.50;;;8.69;99.79
54936;BME280;40838;50.676;7.838;2023-11-18T04:46:10;99078.25;;;9.24;97.53
54936;BME280;40838;50.676;7.838;2023-11-18T04:48:38;99073.59;;;9.38;96.12
54936;BME280;40838;50.676;7.838;2023-11-18T04:51:05;99066.66;;;9.67;94.57
54936;BME280;40838;50.676;7.838;2023-11-18T04:53:32;99062.28;;;9.31;95.94
54936;BME280;40838;50.676;7.838;2023-11-18T04:55:59;99060.72;;;9.42;96.75
54936;BME280;40838;50.676;7.838;2023-11-18T04:58:27;99044.56;;;9.50;96.53
54936;BME280;40838;50.676;7.838;2023-11-18T05:00:54;99053.03;;;9.52;96.40
54936;BME280;40838;50.676;7.838;2023-11-18T05:03:21;99048.22;;;9.91;93.95
54936;BME280;40838;50.676;7.838;2023-11-18T05:05:49;99046.13;;;9.09;99.09
54936;BME280;40838;50.676;7.838;2023-11-18T05:08:20;99038.13;;;9.57;95.63
54936;BME280;40838;50.676;7.838;2023-11-18T05:10:47;99035.47;;;9.99;93.97
54936;BME280;40838;50.676;7.838;2023-11-18T05:13:14;99036.81;;;9.90;94.21
54936;BME280;40838;50.676;7.838;2023-11-18T05:15:43;99034.53;;;10.06;93.13
54936;BME280;40838;50.676;7.838;2023-11-18T05:18:11;99028.66;;;10.03;93.44
54936;BME280;40838;50.676;7.838;2023-11-18T05:20:40;99022.56;;;10.27;92.04
54936;BME280;40838;50.676;7.838;2023-11-18T05:23:07;99023.66;;;9.60;95.72
54936;BME280;40838;50.676;7.838;2023-11-18T05:25:35;99011.13;;;9.55;95.36
54936;BME280;40838;50.676;7.838;2023-11-18T05:28:02;98996.91;;;10.79;89.93
54936;BME280;40838;50.676;7.838;2023-11-18T05:30:30;99001.44;;;10.96;89.42
54936;BME280;40838;50.676;7.838;2023-11-18T05:32:58;98997.88;;;11.47;87.94
54936;BME280;40838;50.676;7.838;2023-11-18T05:35:25;98983.81;;;12.36;82.47
54936;BME280;40838;50.676;7.838;2023-11-18T05:37:54;98992.75;;;12.96;77.96
54936;BME280;40838;50.676;7.838;2023-11-18T05:40:21;99001.09;;;11.49;88.29
54936;BME280;40838;50.676;7.838;2023-11-18T05:42:48;98995.97;;;12.76;79.70
54936;BME280;40838;50.676;7.838;2023-11-18T05:45:17;98993.84;;;12.34;83.14
54936;BME280;40838;50.676;7.838;2023-11-18T05:47:53;98989.94;;;12.20;83.13
54936;BME280;40838;50.676;7.838;2023-11-18T05:50:22;98988.59;;;10.87;88.21
54936;BME280;40838;50.676;7.838;2023-11-18T05:52:50;98994.25;;;10.39;90.49
54936;BME280;40838;50.676;7.838;2023-11-18T05:55:16;98977.84;;;10.65;91.36
54936;BME280;40838;50.676;7.838;2023-11-18T05:57:43;98978.00;;;10.87;88.80
54936;BME280;40838;50.676;7.838;2023-11-18T06:00:12;98992.25;;;10.86;89.87
54936;BME280;40838;50.676;7.838;2023-11-18T06:02:41;98979.63;;;12.23;84.44
54936;BME280;40838;50.676;7.838;2023-11-18T06:05:08;98991.44;;;11.77;85.37
54936;BME280;40838;50.676;7.838;2023-11-18T06:07:39;98993.16;;;13.10;78.28
54936;BME280;40838;50.676;7.838;2023-11-18T06:10:09;98999.88;;;12.29;81.29
54936;BME280;40838;50.676;7.838;2023-11-18T06:12:37;99002.72;;;13.11;79.37
54936;BME280;40838;50.676;7.838;2023-11-18T06:15:06;98997.72;;;11.37;85.48
54936;BME280;40838;50.676;7.838;2023-11-18T06:17:34;98990.69;;;12.37;83.87
54936;BME280;40838;50.676;7.838;2023-11-18T06:20:01;98999.81;;;10.66;89.98
54936;BME280;40838;50.676;7.838;2023-11-18T06:22:31;98993.22;;;11.88;86.17
54936;BME280;40838;50.676;7.838;2023-11-18T06:24:59;98985.66;;;11.80;86.77
54936;BME280;40838;50.676;7.838;2023-11-18T06:27:26;98998.25;;;11.39;88.43
54936;BME280;40838;50.676;7.838;2023-11-18T06:29:53;99007.22;;;10.92;88.28
54936;BME280;40838;50.676;7.838;2023-11-18T06:32:20;99005.28;;;10.88;88.67
54936;BME280;40838;50.676;7.838;2023-11-18T06:34:47;99005.03;;;10.89;90.17
54936;BME280;40838;50.676;7.838;2023-11-18T06:37:14;98993.56;;;11.58;86.54
54936;BME280;40838;50.676;7.838;2023-11-18T06:39:42;98993.28;;;10.97;90.09
54936;BME280;40838;50.676;7.838;2023-11-18T06:42:12;98987.44;;;11.12;90.17
54936;BME280;40838;50.676;7.838;2023-11-18T06:44:39;98990.56;;;9.69;97.75
54936;BME280;40838;50.676;7.838;2023-11-18T06:47:06;98969.66;;;10.96;91.45
54936;BME280;40838;50.676;7.838;2023-11-18T06:49:32;98980.47;;;10.25;93.92
54936;BME280;40838;50.676;7.838;2023-11-18T06:52:00;98964.53;;;11.68;89.04
54936;BME280;40838;50.676;7.838;2023-11-18T06:54:29;98972.31;;;9.68;95.76
54936;BME280;40838;50.676;7.838;2023-11-18T06:56:57;98971.22;;;10.39;93.95
54936;BME280;40838;50.676;7.838;2023-11-18T06:59:25;98965.09;;;10.51;95.32
54936;BME280;40838;50.676;7.838;2023-11-18T07:01:52;98964.22;;;10.33;94.90
54936;BME280;40838;50.676;7.838;2023-11-18T07:04:18;98963.59;;;10.02;96.26
54936;BME280;40838;50.676;7.838;2023-11-18T07:06:45;98959.56;;;10.12;97.40
54936;BME280;40838;50.676;7.838;2023-11-18T07:09:12;98959.78;;;9.98;96.82
54936;BME280;40838;50.676;7.838;2023-11-18T07:11:42;98968.50;;;10.22;96.79
54936;BME280;40838;50.676;7.838;2023-11-18T07:14:10;98967.44;;;10.35;96.97
54936;BME280;40838;50.676;7.838;2023-11-18T07:16:39;98978.75;;;10.71;95.38
54936;BME280;40838;50.676;7.838;2023-11-18T07:19:06;98972.22;;;10.90;93.47
54936;BME280;40838;50.676;7.838;2023-11-18T07:21:33;98995.50;;;10.36;97.76
54936;BME280;40838;50.676;7.838;2023-11-18T07:24:00;98994.06;;;10.98;93.86
54936;BME280;40838;50.676;7.838;2023-11-18T07:26:27;98997.97;;;10.78;94.06
54936;BME280;40838;50.676;7.838;2023-11-18T07:28:54;99000.38;;;10.04;96.25
54936;BME280;40838;50.676;7.838;2023-11-18T07:31:21;98997.63;;;10.63;95.32
54936;BME280;40838;50.676;7.838;2023-11-18T07:33:51;99019.69;;;9.93;97.83
54936;BME280;40838;50.676;7.838;2023-11-18T07:36:20;99023.59;;;10.14;97.36
54936;BME280;40838;50.676;7.838;2023-11-18T07:38:46;99018.03;;;10.51;95.59
54936;BME280;40838;50.676;7.838;2023-11-18T07:41:14;99016.69;;;9.89;99.43
54936;BME280;40838;50.676;7.838;2023-11-18T07:43:49;99016.38;;;10.09;96.98
54936;BME280;40838;50.676;7.838;2023-11-18T07:46:16;99018.69;;;10.06;96.29
54936;BME280;40838;50.676;7.838;2023-11-18T07:48:43;99020.41;;;9.88;97.24
54936;BME280;40838;50.676;7.838;2023-11-18T07:51:12;99022.25;;;9.88;96.84
54936;BME280;40838;50.676;7.838;2023-11-18T07:53:39;99017.16;;;10.33;95.39
54936;BME280;40838;50.676;7.838;2023-11-18T07:56:07;99023.91;;;10.53;94.21
54936;BME280;40838;50.676;7.838;2023-11-18T07:58:37;99023.63;;;9.48;97.58
54936;BME280;40838;50.676;7.838;2023-11-18T08:01:04;99025.88;;;10.34;94.89
54936;BME280;40838;50.676;7.838;2023-11-18T08:03:33;99034.88;;;10.33;94.59
54936;BME280;40838;50.676;7.838;2023-11-18T08:05:59;99021.66;;;10.21;94.60
54936;BME280;40838;50.676;7.838;2023-11-18T08:08:29;99014.97;;;10.18;96.11
54936;BME280;40838;50.676;7.838;2023-11-18T08:10:56;99007.72;;;9.90;97.38
54936;BME280;40838;50.676;7.838;2023-11-18T08:13:23;99008.78;;;10.13;95.94
54936;BME280;40838;50.676;7.838;2023-11-18T08:15:50;99005.34;;;10.00;96.69
54936;BME280;40838;50.676;7.838;2023-11-18T08:18:17;98994.91;;;9.64;98.84
54936;BME280;40838;50.676;7.838;2023-11-18T08:20:47;98986.66;;;9.84;95.17
54936;BME280;40838;50.676;7.838;2023-11-18T08:23:14;98994.41;;;9.97;95.71
54936;BME280;40838;50.676;7.838;2023-11-18T08:25:43;98992.19;;;10.29;95.62
54936;BME280;40838;50.676;7.838;2023-11-18T08:28:12;98990.56;;;10.28;94.68
54936;BME280;40838;50.676;7.838;2023-11-18T08:30:39;98987.59;;;10.13;95.66
54936;BME280;40838;50.676;7.838;2023-11-18T08:33:06;98981.53;;;10.64;94.40
54936;BME280;40838;50.676;7.838;2023-11-18T08:35:34;98990.19;;;10.48;94.81
54936;BME280;40838;50.676;7.838;2023-11-18T08:38:01;98989.66;;;10.11;95.05
54936;BME280;40838;50.676;7.838;2023-11-18T08:40:30;98992.31;;;10.22;93.07
54936;BME280;40838;50.676;7.838;2023-11-18T08:42:58;99000.38;;;10.68;94.25
54936;BME280;40838;50.676;7.838;2023-11-18T08:45:29;99000.72;;;10.08;94.58
54936;BME280;40838;50.676;7.838;2023-11-18T08:47:59;98986.03;;;9.88;97.49
54936;BME280;40838;50.676;7.838;2023-11-18T08:50:27;98990.59;;;10.68;93.42
54936;BME280;40838;50.676;7.838;2023-11-18T08:52:55;98993.13;;;10.23;96.86
54936;BME280;40838;50.676;7.838;2023-11-18T08:55:24;98990.09;;;11.12;92.25
54936;BME280;40838;50.676;7.838;2023-11-18T08:58:06;99004.19;;;9.96;95.86
54936;BME280;40838;50.676;7.838;2023-11-18T09:00:42;98990.53;;;10.92;94.79
54936;BME280;40838;50.676;7.838;2023-11-18T09:03:21;98989.59;;;10.69;93.97
54936;BME280;40838;50.676;7.838;2023-11-18T09:05:53;98994.69;;;11.16;92.98
54936;BME280;40838;50.676;7.838;2023-11-18T09:08:24;98995.03;;;10.51;94.77
54936;BME280;40838;50.676;7.838;2023-11-18T09:10:52;98993.84;;;10.59;94.14
54936;BME280;40838;50.676;7.838;2023-11-18T09:13:22;98991.72;;;10.84;93.39
54936;BME280;40838;50.676;7.838;2023-11-18T09:15:51;98979.94;;;11.71;91.08
54936;BME280;40838;50.676;7.838;2023-11-18T09:18:17;98984.28;;;11.27;92.19
54936;BME280;40838;50.676;7.838;2023-11-18T09:20:45;98980.97;;;10.91;93.83
54936;BME280;40838;50.676;7.838;2023-11-18T09:23:12;98987.00;;;11.99;89.66
54936;BME280;40838;50.676;7.838;2023-11-18T09:25:41;98977.75;;;11.18;92.13
54936;BME280;40838;50.676;7.838;2023-11-18T09:28:12;98983.81;;;11.47;91.22
54936;BME280;40838;50.676;7.838;2023-11-18T09:30:42;98991.59;;;11.36;92.40
54936;BME280;40838;50.676;7.838;2023-11-18T09:33:17;98995.16;;;11.13;94.32
54936;BME280;40838;50.676;7.838;2023-11-18T09:35:52;98983.00;;;11.97;91.02
54936;BME280;40838;50.676;7.838;2023-11-18T09:38:22;98982.47;;;12.39;90.01
54936;BME280;40838;50.676;7.838;2023-11-18T09:40:51;98984.31;;;11.15;94.11
54936;BME280;40838;50.676;7.838;2023-11-18T09:43:19;98979.81;;;11.61;93.05
54936;BME280;40838;50.676;7.838;2023-11-18T09:45:50;98982.06;;;11.52;92.57
54936;BME280;40838;50.676;7.838;2023-11-18T09:48:21;98970.88;;;11.67;92.58
54936;BME280;40838;50.676;7.838;2023-11-18T09:50:52;98972.28;;;10.79;96.61
54936;BME280;40838;50.676;7.838;2023-11-18T09:53:19;98963.75;;;11.05;96.62
54936;BME280;40838;50.676;7.838;2023-11-18T09:55:57;98967.03;;;11.58;93.98
54936;BME280;40838;50.676;7.838;2023-11-18T09:58:33;98968.25;;;12.67;88.26
54936;BME280;40838;50.676;7.838;2023-11-18T10:01:08;98976.41;;;11.99;91.87
54936;BME280;40838;50.676;7.838;2023-11-18T10:03:40;98974.88;;;12.25;91.63
54936;BME280;40838;50.676;7.838;2023-11-18T10:06:08;98984.78;;;11.74;93.88
54936;BME280;40838;50.676;7.838;2023-11-18T10:08:36;98978.25;;;11.82;91.66
54936;BME280;40838;50.676;7.838;2023-11-18T10:11:04;98968.63;;;11.93;92.51
54936;BME280;40838;50.676;7.838;2023-11-18T10:13:34;98972.34;;;12.36;90.79
54936;BME280;40838;50.676;7.838;2023-11-18T10:16:08;98972.00;;;11.88;93.92
54936;BME280;40838;50.676;7.838;2023-11-18T10:18:35;98964.28;;;11.87;92.64
54936;BME280;40838;50.676;7.838;2023-11-18T10:21:03;98960.22;;;12.40;90.38
54936;BME280;40838;50.676;7.838;2023-11-18T10:23:33;98957.28;;;12.85;88.37
54936;BME280;40838;50.676;7.838;2023-11-18T10:26:03;98965.25;;;11.47;95.51
54936;BME280;40838;50.676;7.838;2023-11-18T10:28:31;98960.34;;;11.38;96.76
54936;BME280;40838;50.676;7.838;2023-11-18T10:31:00;98942.84;;;12.32;93.34
54936;BME280;40838;50.676;7.838;2023-11-18T10:33:31;98936.28;;;13.11;87.97
54936;BME280;40838;50.676;7.838;2023-11-18T10:36:01;98932.75;;;11.90;93.14
54936;BME280;40838;50.676;7.838;2023-11-18T10:38:31;98935.34;;;11.85;94.73
54936;BME280;40838;50.676;7.838;2023-11-18T10:41:02;98928.63;;;11.44;96.71
54936;BME280;40838;50.676;7.838;2023-11-18T10:43:28;98929.25;;;11.84;95.30
54936;BME280;40838;50.676;7.838;2023-11-18T10:46:05;98926.88;;;11.88;96.21
54936;BME280;40838;50.676;7.838;2023-11-18T10:48:39;98917.34;;;12.09;95.22
54936;BME280;40838;50.676;7.838;2023-11-18T10:51:08;98906.78;;;12.80;91.70
54936;BME280;40838;50.676;7.838;2023-11-18T10:53:40;98902.16;;;12.70;93.82
54936;BME280;40838;50.676;7.838;2023-11-18T10:56:17;98902.28;;;12.86;91.49
54936;BME280;40838;50.676;7.838;2023-11-18T10:58:49;98905.94;;;12.31;91.89
54936;BME280;40838;50.676;7.838;2023-11-18T11:01:27;98901.03;;;12.93;88.47
54936;BME280;40838;50.676;7.838;2023-11-18T11:03:55;98887.97;;;11.94;96.17
54936;BME280;40838;50.676;7.838;2023-11-18T11:06:23;98874.97;;;13.23;90.68
54936;BME280;40838;50.676;7.838;2023-11-18T11:08:50;98877.31;;;11.50;96.98
54936;BME280;40838;50.676;7.838;2023-11-18T11:11:21;98868.69;;;11.98;92.97
54936;BME280;40838;50.676;7.838;2023-11-18T11:13:52;98857.59;;;12.28;94.44
54936;BME280;40838;50.676;7.838;2023-11-18T11:16:23;98846.56;;;12.37;94.09
54936;BME280;40838;50.676;7.838;2023-11-18T11:18:57;98839.22;;;11.39;98.37
54936;BME280;40838;50.676;7.838;2023-11-18T11:21:26;98832.06;;;11.56;98.23
54936;BME280;40838;50.676;7.838;2023-11-18T11:23:59;98837.72;;;11.09;100.00
54936;BME280;40838;50.676;7.838;2023-11-18T11:26:34;98824.59;;;12.19;96.19
54936;BME280;40838;50.676;7.838;2023-11-18T11:29:16;98807.97;;;12.29;95.90
54936;BME280;40838;50.676;7.838;2023-11-18T11:31:50;98803.22;;;12.04;96.68
54936;BME280;40838;50.676;7.838;2023-11-18T11:34:26;98800.06;;;12.07;98.78
54936;BME280;40838;50.676;7.838;2023-11-18T11:36:58;98788.41;;;13.90;90.42
54936;BME280;40838;50.676;7.838;2023-11-18T11:39:26;98791.41;;;12.44;95.11
54936;BME280;40838;50.676;7.838;2023-11-18T11:41:56;98795.22;;;12.26;96.90
54936;BME280;40838;50.676;7.838;2023-11-18T11:44:24;98795.78;;;12.33;97.30
54936;BME280;40838;50.676;7.838;2023-11-18T11:46:55;98785.66;;;12.52;95.70
54936;BME280;40838;50.676;7.838;2023-11-18T11:49:29;98792.19;;;12.44;95.68
54936;BME280;40838;50.676;7.838;2023-11-18T11:52:04;98789.22;;;12.95;94.79
54936;BME280;40838;50.676;7.838;2023-11-18T11:54:37;98792.38;;;13.34;92.46
54936;BME280;40838;50.676;7.838;2023-11-18T11:57:06;98794.59;;;12.73;94.58
54936;BME280;40838;50.676;7.838;2023-11-18T11:59:54;98804.06;;;13.33;91.67
54936;BME280;40838;50.676;7.838;2023-11-18T12:02:22;98803.97;;;12.54;94.88
54936;BME280;40838;50.676;7.838;2023-11-18T12:04:53;98790.78;;;13.38;95.10
54936;BME280;40838;50.676;7.838;2023-11-18T12:07:25;98787.63;;;12.13;100.00
54936;BME280;40838;50.676;7.838;2023-11-18T12:09:55;98778.72;;;13.20;93.92
54936;BME280;40838;50.676;7.838;2023-11-18T12:12:24;98776.78;;;13.58;90.69
54936;BME280;40838;50.676;7.838;2023-11-18T12:14:53;98776.47;;;12.65;95.28
54936;BME280;40838;50.676;7.838;2023-11-18T12:17:23;98778.94;;;11.12;100.00
54936;BME280;40838;50.676;7.838;2023-11-18T12:19:55;98769.41;;;11.50;100.00
54936;BME280;40838;50.676;7.838;2023-11-18T12:22:24;98774.63;;;11.45;100.00
54936;BME280;40838;50.676;7.838;2023-11-18T12:28:11;98781.25;;;11.65;100.00
54936;BME280;40838;50.676;7.838;2023-11-18T12:30:42;98784.28;;;11.73;100.00
54936;BME280;40838;50.676;7.838;2023-11-18T12:33:51;98785.69;;;11.37;100.00
54936;BME280;40838;50.676;7.838;2023-11-18T12:36:44;98774.91;;;13.06;97.84
54936;BME280;40838;50.676;7.838;2023-11-18T12:42:29;98735.09;;;12.74;99.26
54936;BME280;40838;50.676;7.838;2023-11-18T12:45:23;98724.13;;;12.33;100.00
54936;BME280;40838;50.676;7.838;2023-11-18T12:48:02;98708.88;;;12.18;100.00
54936;BME280;40838;50.676;7.838;2023-11-18T12:50:38;98713.44;;;12.23;100.00
54936;BME280;40838;50.676;7.838;2023-11-18T12:53:06;98716.69;;;12.57;99.58
54936;BME280;40838;50.676;7.838;2023-11-18T12:55:34;98714.19;;;12.83;97.65
54936;BME280;40838;50.676;7.838;2023-11-18T12:58:01;98712.50;;;12.66;98.78
54936;BME280;40838;50.676;7.838;2023-11-18T13:00:31;98702.28;;;12.53;100.00
54936;BME280;40838;50.676;7.838;2023-11-18T13:02:59;98707.31;;;12.87;96.91
54936;BME280;40838;50.676;7.838;2023-11-18T13:05:26;98702.97;;;13.91;94.08
54936;BME280;40838;50.676;7.838;2023-11-18T13:07:55;98703.47;;;13.15;94.84
54936;BME280;40838;50.676;7.838;2023-11-18T13:10:24;98701.88;;;12.66;100.00
54936;BME280;40838;50.676;7.838;2023-11-18T13:12:52;98699.66;;;12.95;97.05
54936;BME280;40838;50.676;7.838;2023-11-18T13:15:19;98693.28;;;12.27;100.00
54936;BME280;40838;50.676;7.838;2023-11-18T13:17:59;98682.00;;;12.10;100.00